Kalac, Russia
Current Conditions -  °F | °C
As of 1:00 AM on Wednesday 26 Nov 2014 (Local Time) from UUOO Reporting Station
Clear Clear  
Wind Chill: -2°   Ceiling: Unl
Heat Index:   Visibility: 6mi
Dew Point:   Wind: 4mph
Humidity: 72%   Direction: NA
Pressure: 30.56"   Gusts: NA
Location:  50.41°N, 41.01°E
Report Text: UUOO 252200Z VRB02MPS CAVOK M14/M18 Q1035 NOSIG RMK 12090070
Loading
Personal Weather Stations






























Interactive Weather Map New forecast layout! Learn more

10-Day Weather Forecast

Advertisements
Track Severe Weather on mobile